sensor_id;sensor_type;location;lat;lon;timestamp;temperature;humidity
12682;DHT22;6405;59.208;18.216;2023-11-19T00:00:16;-4.00;99.90
12682;DHT22;6405;59.208;18.216;2023-11-19T00:02:42;-4.00;99.90
12682;DHT22;6405;59.208;18.216;2023-11-19T00:05:09;-4.00;99.90
12682;DHT22;6405;59.208;18.216;2023-11-19T00:07:37;-4.00;99.90
12682;DHT22;6405;59.208;18.216;2023-11-19T00:10:05;-4.00;99.90
12682;DHT22;6405;59.208;18.216;2023-11-19T00:12:32;-4.00;99.90
12682;DHT22;6405;59.208;18.216;2023-11-19T00:14:58;-4.00;99.90
12682;DHT22;6405;59.208;18.216;2023-11-19T00:17:23;-4.10;99.90
12682;DHT22;6405;59.208;18.216;2023-11-19T00:19:49;-4.10;99.90
12682;DHT22;6405;59.208;18.216;2023-11-19T00:22:17;-4.10;99.90
12682;DHT22;6405;59.208;18.216;2023-11-19T00:24:42;-4.00;99.90
12682;DHT22;6405;59.208;18.216;2023-11-19T00:27:08;-4.10;99.90
12682;DHT22;6405;59.208;18.216;2023-11-19T00:29:34;-4.10;99.90
12682;DHT22;6405;59.208;18.216;2023-11-19T00:31:59;-4.10;99.90
12682;DHT22;6405;59.208;18.216;2023-11-19T00:34:25;-4.10;99.90
12682;DHT22;6405;59.208;18.216;2023-11-19T00:36:51;-4.10;99.90
12682;DHT22;6405;59.208;18.216;2023-11-19T00:39:17;-4.10;99.90
12682;DHT22;6405;59.208;18.216;2023-11-19T00:41:43;-4.20;99.90
12682;DHT22;6405;59.208;18.216;2023-11-19T00:44:09;-4.20;99.90
12682;DHT22;6405;59.208;18.216;2023-11-19T00:46:34;-4.20;99.90
12682;DHT22;6405;59.208;18.216;2023-11-19T00:49:00;-4.20;99.90
12682;DHT22;6405;59.208;18.216;2023-11-19T00:51:26;-4.20;99.90
12682;DHT22;6405;59.208;18.216;2023-11-19T00:53:52;-4.20;99.90
12682;DHT22;6405;59.208;18.216;2023-11-19T00:56:18;-4.30;99.90
12682;DHT22;6405;59.208;18.216;2023-11-19T00:58:45;-4.30;99.90
12682;DHT22;6405;59.208;18.216;2023-11-19T01:01:14;-4.40;99.90
12682;DHT22;6405;59.208;18.216;2023-11-19T01:03:39;-4.50;99.90
12682;DHT22;6405;59.208;18.216;2023-11-19T01:06:05;-4.60;99.90
12682;DHT22;6405;59.208;18.216;2023-11-19T01:08:31;-4.60;99.90
12682;DHT22;6405;59.208;18.216;2023-11-19T01:10:57;-4.70;99.90
12682;DHT22;6405;59.208;18.216;2023-11-19T01:13:22;-4.80;99.90
12682;DHT22;6405;59.208;18.216;2023-11-19T01:15:48;-4.90;99.90
12682;DHT22;6405;59.208;18.216;2023-11-19T01:18:14;-4.90;99.90
12682;DHT22;6405;59.208;18.216;2023-11-19T01:20:40;-4.90;99.90
12682;DHT22;6405;59.208;18.216;2023-11-19T01:23:05;-5.00;99.90
12682;DHT22;6405;59.208;18.216;2023-11-19T01:25:31;-5.10;99.90
12682;DHT22;6405;59.208;18.216;2023-11-19T01:27:57;-5.10;99.90
12682;DHT22;6405;59.208;18.216;2023-11-19T01:30:24;-5.20;99.90
12682;DHT22;6405;59.208;18.216;2023-11-19T01:32:50;-5.30;99.90
12682;DHT22;6405;59.208;18.216;2023-11-19T01:35:15;-5.30;99.90
12682;DHT22;6405;59.208;18.216;2023-11-19T01:37:41;-5.40;99.90
12682;DHT22;6405;59.208;18.216;2023-11-19T01:40:07;-5.50;99.90
12682;DHT22;6405;59.208;18.216;2023-11-19T01:42:37;-5.50;99.90
12682;DHT22;6405;59.208;18.216;2023-11-19T01:45:04;-5.60;99.90
12682;DHT22;6405;59.208;18.216;2023-11-19T01:47:33;-5.60;99.90
12682;DHT22;6405;59.208;18.216;2023-11-19T01:50:01;-5.60;99.90
12682;DHT22;6405;59.208;18.216;2023-11-19T01:52:27;-5.70;99.90
12682;DHT22;6405;59.208;18.216;2023-11-19T01:54:53;-5.70;99.90
12682;DHT22;6405;59.208;18.216;2023-11-19T01:57:22;-5.80;99.90
12682;DHT22;6405;59.208;18.216;2023-11-19T01:59:50;-5.90;99.90
12682;DHT22;6405;59.208;18.216;2023-11-19T02:02:16;-5.90;99.90
12682;DHT22;6405;59.208;18.216;2023-11-19T02:04:47;-6.00;99.90
12682;DHT22;6405;59.208;18.216;2023-11-19T02:07:14;-6.10;99.90
12682;DHT22;6405;59.208;18.216;2023-11-19T02:09:43;-6.10;99.90
12682;DHT22;6405;59.208;18.216;2023-11-19T02:12:09;-6.20;99.90
12682;DHT22;6405;59.208;18.216;2023-11-19T02:14:37;-6.20;99.90
12682;DHT22;6405;59.208;18.216;2023-11-19T02:17:03;-6.30;99.90
12682;DHT22;6405;59.208;18.216;2023-11-19T02:19:29;-6.20;99.90
12682;DHT22;6405;59.208;18.216;2023-11-19T02:21:55;-6.20;99.90
12682;DHT22;6405;59.208;18.216;2023-11-19T02:24:22;-6.20;99.90
12682;DHT22;6405;59.208;18.216;2023-11-19T02:29:22;-6.20;99.90
12682;DHT22;6405;59.208;18.216;2023-11-19T02:31:48;-6.20;99.90
12682;DHT22;6405;59.208;18.216;2023-11-19T02:34:14;-6.30;99.90
12682;DHT22;6405;59.208;18.216;2023-11-19T02:36:40;-6.30;99.90
12682;DHT22;6405;59.208;18.216;2023-11-19T02:39:07;-6.30;99.90
12682;DHT22;6405;59.208;18.216;2023-11-19T02:41:36;-6.40;99.90
12682;DHT22;6405;59.208;18.216;2023-11-19T02:44:08;-6.50;99.90
12682;DHT22;6405;59.208;18.216;2023-11-19T02:46:33;-6.40;99.90
12682;DHT22;6405;59.208;18.216;2023-11-19T02:48:59;-6.50;99.90
12682;DHT22;6405;59.208;18.216;2023-11-19T02:51:25;-6.50;99.90
12682;DHT22;6405;59.208;18.216;2023-11-19T02:53:53;-6.50;99.90
12682;DHT22;6405;59.208;18.216;2023-11-19T02:56:18;-6.40;99.90
12682;DHT22;6405;59.208;18.216;2023-11-19T02:58:55;-6.40;99.90
12682;DHT22;6405;59.208;18.216;2023-11-19T03:01:24;-6.50;99.90
12682;DHT22;6405;59.208;18.216;2023-11-19T03:03:58;-6.50;99.90
12682;DHT22;6405;59.208;18.216;2023-11-19T03:06:24;-6.40;99.90
12682;DHT22;6405;59.208;18.216;2023-11-19T03:08:50;-6.40;99.90
12682;DHT22;6405;59.208;18.216;2023-11-19T03:11:16;-6.40;99.90
12682;DHT22;6405;59.208;18.216;2023-11-19T03:13:41;-6.30;99.90
12682;DHT22;6405;59.208;18.216;2023-11-19T03:16:07;-6.30;99.90
12682;DHT22;6405;59.208;18.216;2023-11-19T03:18:33;-6.30;99.90
12682;DHT22;6405;59.208;18.216;2023-11-19T03:20:59;-6.20;99.90
12682;DHT22;6405;59.208;18.216;2023-11-19T03:23:25;-6.10;99.90
12682;DHT22;6405;59.208;18.216;2023-11-19T03:25:53;-6.00;99.90
12682;DHT22;6405;59.208;18.216;2023-11-19T03:28:19;-6.00;99.90
12682;DHT22;6405;59.208;18.216;2023-11-19T03:30:44;-5.90;99.90
12682;DHT22;6405;59.208;18.216;2023-11-19T03:33:10;-5.80;99.90
12682;DHT22;6405;59.208;18.216;2023-11-19T03:35:36;-5.80;99.90
12682;DHT22;6405;59.208;18.216;2023-11-19T03:38:01;-5.70;99.90
12682;DHT22;6405;59.208;18.216;2023-11-19T03:40:28;-5.60;99.90
12682;DHT22;6405;59.208;18.216;2023-11-19T03:42:56;-5.50;99.90
12682;DHT22;6405;59.208;18.216;2023-11-19T03:45:22;-5.40;99.90
12682;DHT22;6405;59.208;18.216;2023-11-19T03:47:48;-5.40;99.90
12682;DHT22;6405;59.208;18.216;2023-11-19T03:50:15;-5.40;99.90
12682;DHT22;6405;59.208;18.216;2023-11-19T03:52:42;-5.30;99.90
12682;DHT22;6405;59.208;18.216;2023-11-19T03:55:08;-5.30;99.90
12682;DHT22;6405;59.208;18.216;2023-11-19T03:57:34;-5.20;99.90
12682;DHT22;6405;59.208;18.216;2023-11-19T04:00:01;-5.20;99.90
12682;DHT22;6405;59.208;18.216;2023-11-19T04:02:33;-5.20;99.90
12682;DHT22;6405;59.208;18.216;2023-11-19T04:04:58;-5.10;99.90
12682;DHT22;6405;59.208;18.216;2023-11-19T04:07:24;-5.00;99.90
12682;DHT22;6405;59.208;18.216;2023-11-19T04:09:50;-5.00;99.90
12682;DHT22;6405;59.208;18.216;2023-11-19T04:12:16;-4.90;99.90
12682;DHT22;6405;59.208;18.216;2023-11-19T04:14:42;-4.90;99.90
12682;DHT22;6405;59.208;18.216;2023-11-19T04:17:07;-4.80;99.90
12682;DHT22;6405;59.208;18.216;2023-11-19T04:19:33;-4.80;99.90
12682;DHT22;6405;59.208;18.216;2023-11-19T04:21:59;-4.70;99.90
12682;DHT22;6405;59.208;18.216;2023-11-19T04:24:24;-4.70;99.90
12682;DHT22;6405;59.208;18.216;2023-11-19T04:26:50;-4.60;99.90
12682;DHT22;6405;59.208;18.216;2023-11-19T04:29:16;-4.60;99.90
12682;DHT22;6405;59.208;18.216;2023-11-19T04:31:43;-4.60;99.90
12682;DHT22;6405;59.208;18.216;2023-11-19T04:34:10;-4.60;99.90
12682;DHT22;6405;59.208;18.216;2023-11-19T04:36:37;-4.60;99.90
12682;DHT22;6405;59.208;18.216;2023-11-19T04:39:03;-4.60;99.90
12682;DHT22;6405;59.208;18.216;2023-11-19T04:41:51;-4.50;99.90
12682;DHT22;6405;59.208;18.216;2023-11-19T04:44:20;-4.50;99.90
12682;DHT22;6405;59.208;18.216;2023-11-19T04:46:45;-4.50;99.90
12682;DHT22;6405;59.208;18.216;2023-11-19T04:49:12;-4.50;99.90
12682;DHT22;6405;59.208;18.216;2023-11-19T04:51:41;-4.50;99.90
12682;DHT22;6405;59.208;18.216;2023-11-19T04:54:08;-4.40;99.90
12682;DHT22;6405;59.208;18.216;2023-11-19T04:56:38;-4.40;99.90
12682;DHT22;6405;59.208;18.216;2023-11-19T04:59:04;-4.40;99.90
12682;DHT22;6405;59.208;18.216;2023-11-19T05:01:34;-4.40;99.90
12682;DHT22;6405;59.208;18.216;2023-11-19T05:04:01;-4.30;99.90
12682;DHT22;6405;59.208;18.216;2023-11-19T05:06:30;-4.40;99.90
12682;DHT22;6405;59.208;18.216;2023-11-19T05:08:59;-4.30;99.90
12682;DHT22;6405;59.208;18.216;2023-11-19T05:11:30;-4.30;99.90
12682;DHT22;6405;59.208;18.216;2023-11-19T05:13:55;-4.30;99.90
12682;DHT22;6405;59.208;18.216;2023-11-19T05:16:21;-4.30;99.90
12682;DHT22;6405;59.208;18.216;2023-11-19T05:18:47;-4.30;99.90
12682;DHT22;6405;59.208;18.216;2023-11-19T05:21:13;-4.30;99.90
12682;DHT22;6405;59.208;18.216;2023-11-19T05:23:38;-4.20;99.90
12682;DHT22;6405;59.208;18.216;2023-11-19T05:26:05;-4.20;99.90
12682;DHT22;6405;59.208;18.216;2023-11-19T05:28:30;-4.20;99.90
12682;DHT22;6405;59.208;18.216;2023-11-19T05:30:57;-4.20;99.90
12682;DHT22;6405;59.208;18.216;2023-11-19T05:33:23;-4.10;99.90
12682;DHT22;6405;59.208;18.216;2023-11-19T05:35:48;-4.10;99.90
12682;DHT22;6405;59.208;18.216;2023-11-19T05:38:14;-4.10;99.90
12682;DHT22;6405;59.208;18.216;2023-11-19T05:40:41;-4.10;99.90
12682;DHT22;6405;59.208;18.216;2023-11-19T05:43:07;-4.10;99.90
12682;DHT22;6405;59.208;18.216;2023-11-19T05:45:32;-4.10;99.90
12682;DHT22;6405;59.208;18.216;2023-11-19T05:47:58;-4.10;99.90
12682;DHT22;6405;59.208;18.216;2023-11-19T05:50:24;-4.10;99.90
12682;DHT22;6405;59.208;18.216;2023-11-19T05:52:50;-4.00;99.90
12682;DHT22;6405;59.208;18.216;2023-11-19T05:55:18;-4.10;99.90
12682;DHT22;6405;59.208;18.216;2023-11-19T05:57:44;-4.10;99.90
12682;DHT22;6405;59.208;18.216;2023-11-19T06:00:11;-4.10;99.90
12682;DHT22;6405;59.208;18.216;2023-11-19T06:02:38;-4.10;99.90
12682;DHT22;6405;59.208;18.216;2023-11-19T06:05:05;-4.10;99.90
12682;DHT22;6405;59.208;18.216;2023-11-19T06:07:32;-4.00;99.90
12682;DHT22;6405;59.208;18.216;2023-11-19T06:09:57;-4.00;99.90
12682;DHT22;6405;59.208;18.216;2023-11-19T06:12:23;-4.00;99.90
12682;DHT22;6405;59.208;18.216;2023-11-19T06:14:49;-4.00;99.90
12682;DHT22;6405;59.208;18.216;2023-11-19T06:17:15;-4.00;99.90
12682;DHT22;6405;59.208;18.216;2023-11-19T06:19:40;-4.00;99.90
12682;DHT22;6405;59.208;18.216;2023-11-19T06:22:06;-4.10;99.90
12682;DHT22;6405;59.208;18.216;2023-11-19T06:24:32;-4.10;99.90
12682;DHT22;6405;59.208;18.216;2023-11-19T06:26:57;-4.10;99.90
12682;DHT22;6405;59.208;18.216;2023-11-19T06:29:23;-3.90;99.90
12682;DHT22;6405;59.208;18.216;2023-11-19T06:31:50;-4.20;99.90
12682;DHT22;6405;59.208;18.216;2023-11-19T06:34:16;-4.20;99.90
12682;DHT22;6405;59.208;18.216;2023-11-19T06:36:41;-4.30;99.90
12682;DHT22;6405;59.208;18.216;2023-11-19T06:39:10;-4.30;99.90
12682;DHT22;6405;59.208;18.216;2023-11-19T06:41:44;-4.40;99.90
12682;DHT22;6405;59.208;18.216;2023-11-19T06:44:10;-4.60;99.90
12682;DHT22;6405;59.208;18.216;2023-11-19T06:46:36;-4.40;99.90
12682;DHT22;6405;59.208;18.216;2023-11-19T06:49:01;-4.60;99.90
12682;DHT22;6405;59.208;18.216;2023-11-19T06:51:27;-4.70;99.90
12682;DHT22;6405;59.208;18.216;2023-11-19T06:53:53;-4.80;99.90
12682;DHT22;6405;59.208;18.216;2023-11-19T06:56:20;-4.80;99.90
12682;DHT22;6405;59.208;18.216;2023-11-19T06:58:46;-4.80;99.90
12682;DHT22;6405;59.208;18.216;2023-11-19T07:01:17;-4.80;99.90
12682;DHT22;6405;59.208;18.216;2023-11-19T07:03:47;-4.90;99.90
12682;DHT22;6405;59.208;18.216;2023-11-19T07:06:13;-4.90;99.90
12682;DHT22;6405;59.208;18.216;2023-11-19T07:08:41;-4.90;99.90
12682;DHT22;6405;59.208;18.216;2023-11-19T07:11:07;-4.90;99.90
12682;DHT22;6405;59.208;18.216;2023-11-19T07:13:35;-5.00;99.90
12682;DHT22;6405;59.208;18.216;2023-11-19T07:16:02;-5.00;99.90
12682;DHT22;6405;59.208;18.216;2023-11-19T07:18:29;-4.90;99.90
12682;DHT22;6405;59.208;18.216;2023-11-19T07:20:54;-5.00;99.90
12682;DHT22;6405;59.208;18.216;2023-11-19T07:23:20;-5.10;99.90
12682;DHT22;6405;59.208;18.216;2023-11-19T07:25:47;-5.10;99.90
12682;DHT22;6405;59.208;18.216;2023-11-19T07:28:16;-5.20;99.90
12682;DHT22;6405;59.208;18.216;2023-11-19T07:30:42;-5.40;99.90
12682;DHT22;6405;59.208;18.216;2023-11-19T07:33:07;-5.20;99.90
12682;DHT22;6405;59.208;18.216;2023-11-19T07:35:33;-5.20;99.90
12682;DHT22;6405;59.208;18.216;2023-11-19T07:37:59;-5.20;99.90
12682;DHT22;6405;59.208;18.216;2023-11-19T07:40:25;-5.20;99.90
12682;DHT22;6405;59.208;18.216;2023-11-19T07:42:51;-5.20;99.90
12682;DHT22;6405;59.208;18.216;2023-11-19T07:45:17;-5.20;99.90
12682;DHT22;6405;59.208;18.216;2023-11-19T07:47:43;-5.20;99.90
12682;DHT22;6405;59.208;18.216;2023-11-19T07:50:10;-5.20;99.90
12682;DHT22;6405;59.208;18.216;2023-11-19T07:52:37;-5.20;99.90
12682;DHT22;6405;59.208;18.216;2023-11-19T07:55:03;-5.20;99.90
12682;DHT22;6405;59.208;18.216;2023-11-19T07:57:30;-5.10;99.90
12682;DHT22;6405;59.208;18.216;2023-11-19T08:00:00;-5.20;99.90
12682;DHT22;6405;59.208;18.216;2023-11-19T08:02:27;-5.10;99.90
12682;DHT22;6405;59.208;18.216;2023-11-19T08:04:52;-5.00;99.90
12682;DHT22;6405;59.208;18.216;2023-11-19T08:07:20;-5.00;99.90
12682;DHT22;6405;59.208;18.216;2023-11-19T08:09:46;-4.90;99.90
12682;DHT22;6405;59.208;18.216;2023-11-19T08:12:12;-4.80;99.90
12682;DHT22;6405;59.208;18.216;2023-11-19T08:14:41;-4.70;99.90
12682;DHT22;6405;59.208;18.216;2023-11-19T08:17:06;-4.70;99.90
12682;DHT22;6405;59.208;18.216;2023-11-19T08:19:32;-4.60;99.90
12682;DHT22;6405;59.208;18.216;2023-11-19T08:21:58;-4.50;99.90
12682;DHT22;6405;59.208;18.216;2023-11-19T08:24:24;-4.20;99.90
12682;DHT22;6405;59.208;18.216;2023-11-19T08:26:49;-4.40;99.90
12682;DHT22;6405;59.208;18.216;2023-11-19T08:29:15;-4.30;99.90
12682;DHT22;6405;59.208;18.216;2023-11-19T08:31:41;-4.20;99.90
12682;DHT22;6405;59.208;18.216;2023-11-19T08:34:07;-4.20;99.90
12682;DHT22;6405;59.208;18.216;2023-11-19T08:36:36;-4.10;99.90
12682;DHT22;6405;59.208;18.216;2023-11-19T08:39:01;-4.10;99.90
12682;DHT22;6405;59.208;18.216;2023-11-19T08:41:28;-4.00;99.90
12682;DHT22;6405;59.208;18.216;2023-11-19T08:43:54;-3.90;99.90
12682;DHT22;6405;59.208;18.216;2023-11-19T08:46:19;-3.90;99.90
12682;DHT22;6405;59.208;18.216;2023-11-19T08:48:45;-3.60;99.90
12682;DHT22;6405;59.208;18.216;2023-11-19T08:51:12;-3.70;99.90
12682;DHT22;6405;59.208;18.216;2023-11-19T08:53:38;-3.50;99.90
12682;DHT22;6405;59.208;18.216;2023-11-19T08:56:04;-3.60;99.90
12682;DHT22;6405;59.208;18.216;2023-11-19T08:58:30;-3.50;99.90
12682;DHT22;6405;59.208;18.216;2023-11-19T09:00:56;-3.40;99.90
12682;DHT22;6405;59.208;18.216;2023-11-19T09:03:23;-3.30;99.90
12682;DHT22;6405;59.208;18.216;2023-11-19T09:05:49;-3.20;99.90
12682;DHT22;6405;59.208;18.216;2023-11-19T09:08:14;-3.20;99.90
12682;DHT22;6405;59.208;18.216;2023-11-19T09:10:40;-3.10;99.90
12682;DHT22;6405;59.208;18.216;2023-11-19T09:13:06;-3.10;99.90
12682;DHT22;6405;59.208;18.216;2023-11-19T09:15:31;-2.90;99.90
12682;DHT22;6405;59.208;18.216;2023-11-19T09:17:57;-3.00;99.90
12682;DHT22;6405;59.208;18.216;2023-11-19T09:20:23;-2.90;99.90
12682;DHT22;6405;59.208;18.216;2023-11-19T09:22:48;-2.90;99.90
12682;DHT22;6405;59.208;18.216;2023-11-19T09:25:14;-2.80;99.90
12682;DHT22;6405;59.208;18.216;2023-11-19T09:27:45;-2.70;99.90
12682;DHT22;6405;59.208;18.216;2023-11-19T09:30:11;-2.70;99.90
12682;DHT22;6405;59.208;18.216;2023-11-19T09:32:38;-2.60;99.90
12682;DHT22;6405;59.208;18.216;2023-11-19T09:35:04;-2.50;99.90
12682;DHT22;6405;59.208;18.216;2023-11-19T09:37:30;-2.40;99.90
12682;DHT22;6405;59.208;18.216;2023-11-19T09:39:56;-2.30;99.90
12682;DHT22;6405;59.208;18.216;2023-11-19T09:42:23;-2.20;99.90
12682;DHT22;6405;59.208;18.216;2023-11-19T09:44:49;-2.10;99.90
12682;DHT22;6405;59.208;18.216;2023-11-19T09:47:16;-2.00;99.90
12682;DHT22;6405;59.208;18.216;2023-11-19T09:49:43;-2.00;99.90
12682;DHT22;6405;59.208;18.216;2023-11-19T09:52:09;-1.90;99.90
12682;DHT22;6405;59.208;18.216;2023-11-19T09:54:35;-1.90;99.90
12682;DHT22;6405;59.208;18.216;2023-11-19T09:57:02;-1.90;99.90
12682;DHT22;6405;59.208;18.216;2023-11-19T09:59:31;-1.90;99.90
12682;DHT22;6405;59.208;18.216;2023-11-19T10:01:58;-1.80;99.90
12682;DHT22;6405;59.208;18.216;2023-11-19T10:04:25;-1.80;99.90
12682;DHT22;6405;59.208;18.216;2023-11-19T10:06:55;-1.90;99.90
12682;DHT22;6405;59.208;18.216;2023-11-19T10:09:20;-1.90;99.90
12682;DHT22;6405;59.208;18.216;2023-11-19T10:11:46;-2.00;99.90
12682;DHT22;6405;59.208;18.216;2023-11-19T10:14:13;-2.00;99.90
12682;DHT22;6405;59.208;18.216;2023-11-19T10:16:40;-2.10;99.90
12682;DHT22;6405;59.208;18.216;2023-11-19T10:19:06;-2.10;99.90
12682;DHT22;6405;59.208;18.216;2023-11-19T10:21:33;-2.10;99.90
12682;DHT22;6405;59.208;18.216;2023-11-19T10:23:59;-2.10;99.90
12682;DHT22;6405;59.208;18.216;2023-11-19T10:26:30;-2.20;99.90
12682;DHT22;6405;59.208;18.216;2023-11-19T10:28:56;-2.20;99.90
12682;DHT22;6405;59.208;18.216;2023-11-19T10:31:22;-2.20;99.90
12682;DHT22;6405;59.208;18.216;2023-11-19T10:33:52;-2.10;99.90
12682;DHT22;6405;59.208;18.216;2023-11-19T10:36:18;-2.10;99.90
12682;DHT22;6405;59.208;18.216;2023-11-19T10:38:52;-2.10;99.90
12682;DHT22;6405;59.208;18.216;2023-11-19T10:43:54;-2.10;99.90
12682;DHT22;6405;59.208;18.216;2023-11-19T10:46:20;-2.00;99.90
12682;DHT22;6405;59.208;18.216;2023-11-19T10:48:49;-2.00;99.90
12682;DHT22;6405;59.208;18.216;2023-11-19T10:51:19;-2.00;99.90
12682;DHT22;6405;59.208;18.216;2023-11-19T10:53:49;-1.90;99.90
12682;DHT22;6405;59.208;18.216;2023-11-19T10:56:20;-1.90;99.90
12682;DHT22;6405;59.208;18.216;2023-11-19T10:58:45;-1.90;99.90
12682;DHT22;6405;59.208;18.216;2023-11-19T11:01:20;-1.80;99.90
12682;DHT22;6405;59.208;18.216;2023-11-19T11:03:51;-1.70;99.90
12682;DHT22;6405;59.208;18.216;2023-11-19T11:06:19;-1.70;99.90
12682;DHT22;6405;59.208;18.216;2023-11-19T11:08:48;-1.70;99.90
12682;DHT22;6405;59.208;18.216;2023-11-19T11:11:16;-1.70;99.90
12682;DHT22;6405;59.208;18.216;2023-11-19T11:13:47;-1.70;99.90
12682;DHT22;6405;59.208;18.216;2023-11-19T11:16:15;-1.70;99.90
12682;DHT22;6405;59.208;18.216;2023-11-19T11:18:45;-1.70;99.90
12682;DHT22;6405;59.208;18.216;2023-11-19T11:21:14;-1.60;99.90
12682;DHT22;6405;59.208;18.216;2023-11-19T11:26:56;-1.50;99.90
12682;DHT22;6405;59.208;18.216;2023-11-19T11:36:21;-1.50;99.90
12682;DHT22;6405;59.208;18.216;2023-11-19T11:38:22;-1.40;99.90
12682;DHT22;6405;59.208;18.216;2023-11-19T11:41:18;-1.40;99.90
12682;DHT22;6405;59.208;18.216;2023-11-19T11:43:54;-1.40;99.90
12682;DHT22;6405;59.208;18.216;2023-11-19T11:48:59;-1.50;99.90
12682;DHT22;6405;59.208;18.216;2023-11-19T11:57:10;-1.60;99.90
12682;DHT22;6405;59.208;18.216;2023-11-19T11:59:46;-1.50;99.90
12682;DHT22;6405;59.208;18.216;2023-11-19T12:02:15;-1.60;99.90
12682;DHT22;6405;59.208;18.216;2023-11-19T12:04:42;-1.50;99.90
12682;DHT22;6405;59.208;18.216;2023-11-19T12:07:16;-1.60;99.90
12682;DHT22;6405;59.208;18.216;2023-11-19T12:09:53;-1.60;99.90
12682;DHT22;6405;59.208;18.216;2023-11-19T12:12:27;-1.60;99.90
12682;DHT22;6405;59.208;18.216;2023-11-19T12:20:04;-1.70;99.90
12682;DHT22;6405;59.208;18.216;2023-11-19T12:22:31;-1.60;99.90
12682;DHT22;6405;59.208;18.216;2023-11-19T12:24:58;-1.60;99.90
12682;DHT22;6405;59.208;18.216;2023-11-19T12:27:24;-1.60;99.90
12682;DHT22;6405;59.208;18.216;2023-11-19T12:29:50;-1.60;99.90
12682;DHT22;6405;59.208;18.216;2023-11-19T12:32:16;-1.60;99.90
12682;DHT22;6405;59.208;18.216;2023-11-19T12:34:41;-1.50;99.90
12682;DHT22;6405;59.208;18.216;2023-11-19T12:37:08;-1.50;99.90
12682;DHT22;6405;59.208;18.216;2023-11-19T12:39:36;-1.30;99.90
12682;DHT22;6405;59.208;18.216;2023-11-19T12:42:02;-1.40;99.90
12682;DHT22;6405;59.208;18.216;2023-11-19T12:44:28;-1.40;99.90
12682;DHT22;6405;59.208;18.216;2023-11-19T12:47:03;-1.40;99.90
12682;DHT22;6405;59.208;18.216;2023-11-19T12:49:30;-1.30;99.90
12682;DHT22;6405;59.208;18.216;2023-11-19T12:51:55;-1.30;99.90
12682;DHT22;6405;59.208;18.216;2023-11-19T12:54:32;-1.30;99.90
12682;DHT22;6405;59.208;18.216;2023-11-19T12:56:58;-1.30;99.90
12682;DHT22;6405;59.208;18.216;2023-11-19T12:59:24;-1.30;99.90
12682;DHT22;6405;59.208;18.216;2023-11-19T13:01:59;-1.30;99.90
12682;DHT22;6405;59.208;18.216;2023-11-19T13:04:29;-1.20;99.90
12682;DHT22;6405;59.208;18.216;2023-11-19T13:06:59;-1.20;99.90
12682;DHT22;6405;59.208;18.216;2023-11-19T13:09:28;-1.20;99.90
12682;DHT22;6405;59.208;18.216;2023-11-19T13:11:55;-1.10;99.90
12682;DHT22;6405;59.208;18.216;2023-11-19T13:14:22;-1.20;99.90
12682;DHT22;6405;59.208;18.216;2023-11-19T13:16:49;-1.20;99.90
12682;DHT22;6405;59.208;18.216;2023-11-19T13:19:17;-1.20;99.90
12682;DHT22;6405;59.208;18.216;2023-11-19T13:21:47;-1.20;99.90
12682;DHT22;6405;59.208;18.216;2023-11-19T13:24:13;-1.20;99.90
12682;DHT22;6405;59.208;18.216;2023-11-19T13:26:39;-1.20;99.90
12682;DHT22;6405;59.208;18.216;2023-11-19T13:29:05;-1.20;99.90
12682;DHT22;6405;59.208;18.216;2023-11-19T13:31:31;-1.20;99.90
12682;DHT22;6405;59.208;18.216;2023-11-19T13:33:57;-1.20;99.90
12682;DHT22;6405;59.208;18.216;2023-11-19T13:36:24;-1.10;99.90
12682;DHT22;6405;59.208;18.216;2023-11-19T13:38:51;-1.20;99.90
12682;DHT22;6405;59.208;18.216;2023-11-19T13:41:17;-1.20;99.90
12682;DHT22;6405;59.208;18.216;2023-11-19T13:43:42;-1.20;99.90
12682;DHT22;6405;59.208;18.216;2023-11-19T13:46:09;-1.20;99.90
12682;DHT22;6405;59.208;18.216;2023-11-19T13:48:37;-1.20;99.90
12682;DHT22;6405;59.208;18.216;2023-11-19T13:51:03;-1.20;99.90
12682;DHT22;6405;59.208;18.216;2023-11-19T13:53:29;-1.20;99.90
12682;DHT22;6405;59.208;18.216;2023-11-19T13:55:55;-1.20;99.90
12682;DHT22;6405;59.208;18.216;2023-11-19T13:58:21;-1.30;99.90
12682;DHT22;6405;59.208;18.216;2023-11-19T14:00:46;-1.30;99.90
12682;DHT22;6405;59.208;18.216;2023-11-19T14:03:12;-1.20;99.90
12682;DHT22;6405;59.208;18.216;2023-11-19T14:05:38;-1.30;99.90
12682;DHT22;6405;59.208;18.216;2023-11-19T14:08:06;-1.30;99.90
12682;DHT22;6405;59.208;18.216;2023-11-19T14:10:39;-1.20;99.90
12682;DHT22;6405;59.208;18.216;2023-11-19T14:13:08;-1.30;99.90
12682;DHT22;6405;59.208;18.216;2023-11-19T14:15:34;-1.30;99.90
12682;DHT22;6405;59.208;18.216;2023-11-19T14:18:00;-1.20;99.90
12682;DHT22;6405;59.208;18.216;2023-11-19T14:20:26;-1.30;99.90
12682;DHT22;6405;59.208;18.216;2023-11-19T14:22:52;-1.30;99.90
12682;DHT22;6405;59.208;18.216;2023-11-19T14:25:18;-1.30;99.90
12682;DHT22;6405;59.208;18.216;2023-11-19T14:27:44;-1.30;99.90
12682;DHT22;6405;59.208;18.216;2023-11-19T14:30:12;-1.30;99.90
12682;DHT22;6405;59.208;18.216;2023-11-19T14:32:42;-1.30;99.90
12682;DHT22;6405;59.208;18.216;2023-11-19T14:35:10;-1.40;99.90
12682;DHT22;6405;59.208;18.216;2023-11-19T14:37:36;-1.40;99.90
12682;DHT22;6405;59.208;18.216;2023-11-19T14:40:02;-1.40;99.90
12682;DHT22;6405;59.208;18.216;2023-11-19T14:42:32;-1.40;99.90
12682;DHT22;6405;59.208;18.216;2023-11-19T14:44:58;-1.40;99.90
12682;DHT22;6405;59.208;18.216;2023-11-19T14:47:27;-1.40;99.90
12682;DHT22;6405;59.208;18.216;2023-11-19T14:49:52;-1.30;99.90
12682;DHT22;6405;59.208;18.216;2023-11-19T14:52:18;-1.40;99.90
12682;DHT22;6405;59.208;18.216;2023-11-19T14:54:44;-1.30;99.90
12682;DHT22;6405;59.208;18.216;2023-11-19T14:57:09;-1.20;99.90
12682;DHT22;6405;59.208;18.216;2023-11-19T14:59:36;-1.30;99.90
12682;DHT22;6405;59.208;18.216;2023-11-19T15:02:02;-1.30;99.90
12682;DHT22;6405;59.208;18.216;2023-11-19T15:04:28;-1.30;99.90
12682;DHT22;6405;59.208;18.216;2023-11-19T15:06:57;-1.30;99.90
12682;DHT22;6405;59.208;18.216;2023-11-19T15:09:22;-1.30;99.90
12682;DHT22;6405;59.208;18.216;2023-11-19T15:11:48;-1.30;99.90
12682;DHT22;6405;59.208;18.216;2023-11-19T15:14:14;-1.30;99.90
12682;DHT22;6405;59.208;18.216;2023-11-19T15:16:45;-1.30;99.90
12682;DHT22;6405;59.208;18.216;2023-11-19T15:19:11;-1.30;99.90
12682;DHT22;6405;59.208;18.216;2023-11-19T15:21:41;-1.30;99.90
12682;DHT22;6405;59.208;18.216;2023-11-19T15:24:08;-1.30;99.90
12682;DHT22;6405;59.208;18.216;2023-11-19T15:26:34;-1.20;99.90
12682;DHT22;6405;59.208;18.216;2023-11-19T15:29:04;-1.30;99.90
12682;DHT22;6405;59.208;18.216;2023-11-19T15:31:29;-1.20;99.90
12682;DHT22;6405;59.208;18.216;2023-11-19T15:33:55;-1.20;99.90
12682;DHT22;6405;59.208;18.216;2023-11-19T15:36:21;-1.20;99.90
12682;DHT22;6405;59.208;18.216;2023-11-19T15:38:47;-1.30;99.90
12682;DHT22;6405;59.208;18.216;2023-11-19T15:41:13;-1.20;99.90
12682;DHT22;6405;59.208;18.216;2023-11-19T15:43:39;-1.20;99.90
12682;DHT22;6405;59.208;18.216;2023-11-19T15:46:09;-1.30;99.90
12682;DHT22;6405;59.208;18.216;2023-11-19T15:48:35;-1.30;99.90
12682;DHT22;6405;59.208;18.216;2023-11-19T15:51:01;-1.20;99.90
12682;DHT22;6405;59.208;18.216;2023-11-19T15:53:31;-1.20;99.90
12682;DHT22;6405;59.208;18.216;2023-11-19T15:55:57;-1.20;99.90